Spirit Of New York — WCW9332 — position and weather

sailwx.info

Track history (hours):
 
Tides and Currents Weather Stations Pressure Air Temp Water Temp Dewpoint Dewpoint Depression Visibility Wind Speed Wind Dir Waves Ship Positions

Spirit Of New York

Owner: SPIRIT CRUISES LLC, NEW YORK, NY. More information available from US FCC via Universal Licensing System and Coast Guard Vessel Documentation Center.

Last reported at 2014-Dec-21 02:33 UTC. Time now 2014-Dec-21 02:39 UTC.
Position N 40°43' W 074°01'.

Length 62 m.

Type: Passenger vessel. MMSI: 338897000.

Date/timePositionNaut miles runAvg speedWind from/ knotsBaromVisibWave heightAir tempDewpointWater temp
2014-Dec-21 02:33N 40°43' W 074°01'3 2.7
2014-Dec-21 01:33N 40°46' W 074°01'1 0.0
2014-Dec-20 03:25N 40°45' W 074°01'1 1.0
2014-Dec-20 02:33N 40°44' W 074°01'2 2.2
2014-Dec-20 01:33N 40°42' W 074°00'3 3.4
2014-Dec-20 00:33N 40°45' W 074°01'1 0.5
2014-Dec-19 23:33N 40°45' W 074°01'0 0.0
2014-Dec-19 03:10N 40°45' W 074°01'1 1.3
2014-Dec-19 02:33N 40°44' W 074°01'2 2.2
2014-Dec-19 01:33N 40°42' W 074°01'0 0.4
2014-Dec-19 00:33N 40°42' W 074°01'3 3.0
2014-Dec-18 23:33N 40°45' W 074°01'0 0.0
2014-Dec-18 22:33N 40°45' W 074°01'0 0.0
2014-Dec-18 21:33N 40°45' W 074°01'0 0.0
2014-Dec-18 20:33N 40°45' W 074°01'0 0.0
2014-Dec-18 19:33N 40°45' W 074°01'1 1.1
2014-Dec-18 18:33N 40°44' W 074°01'2 2.1
2014-Dec-18 17:33N 40°42' W 074°01'3 3.2
2014-Dec-18 16:33N 40°45' W 074°01'0 0.0
2014-Dec-18 03:14N 40°45' W 074°01'1 1.4
2014-Dec-18 02:34N 40°44' W 074°01'2 2.2
2014-Dec-18 01:34N 40°42' W 074°01'4 3.6
2014-Dec-18 00:34N 40°45' W 074°01'1 0.6
2014-Dec-17 23:34N 40°45' W 074°01'  
2014-Dec-15 02:34N 40°44' W 074°01'3 2.7
2014-Dec-15 01:34N 40°42' W 074°02'3 3.5
2014-Dec-15 00:33N 40°45' W 074°01'0 0.3
2014-Dec-14 23:33N 40°45' W 074°01'0 0.0
2014-Dec-14 22:33N 40°45' W 074°01'0 0.0
2014-Dec-14 21:33N 40°45' W 074°01'0 0.0
2014-Dec-14 20:33N 40°45' W 074°01'0 0.0
2014-Dec-14 19:33N 40°45' W 074°01'1 1.1
2014-Dec-14 18:32N 40°44' W 074°01'1 0.7
2014-Dec-14 17:34N 40°43' W 074°01'1 0.0
2014-Dec-14 02:33N 40°44' W 074°01'2 2.0
2014-Dec-14 01:33N 40°42' W 074°01'4 3.8
2014-Dec-14 00:33N 40°46' W 074°00'1 0.8
2014-Dec-13 23:33N 40°45' W 074°01'0 0.0
2014-Dec-13 22:33N 40°45' W 074°01'0 0.0
2014-Dec-13 21:34N 40°45' W 074°01'0 0.0
2014-Dec-13 20:33N 40°45' W 074°01'0 0.0
2014-Dec-13 19:33N 40°45' W 074°01'1 0.7
2014-Dec-13 18:33N 40°44' W 074°01'2 2.0
2014-Dec-13 17:34N 40°42' W 074°02'3 2.7
2014-Dec-13 16:33N 40°45' W 074°01'0 0.0
2014-Dec-13 15:33N 40°45' W 074°01'0 0.0
2014-Dec-13 03:34N 40°45' W 074°01'3 3.0
2014-Dec-13 02:33N 40°42' W 074°02'1 0.5
2014-Dec-13 01:34N 40°42' W 074°01'3 3.1
2014-Dec-13 00:34N 40°45' W 074°01'0 0.0
2014-Dec-12 23:34N 40°45' W 074°01'0 0.0
2014-Dec-12 22:34N 40°45' W 074°01'0 0.5
2014-Dec-12 21:34N 40°44' W 074°01'2 2.5
2014-Dec-12 20:34N 40°42' W 074°02'3 0.2
2014-Dec-12 03:33N 40°45' W 074°01'1 0.8
2014-Dec-12 02:34N 40°44' W 074°01'3 2.5
2014-Dec-12 01:34N 40°42' W 074°01'4 4.2
2014-Dec-12 00:33N 40°46' W 074°01'1 0.0
2014-Dec-11 03:33N 40°45' W 074°01'1 0.9
2014-Dec-11 02:34N 40°44' W 074°01'  
Track history (hours):
 
Tides and Currents Weather Stations Pressure Air Temp Water Temp Dewpoint Dewpoint Depression Visibility Wind Speed Wind Dir Waves Ship Positions

Spirit Of New York

Owner: SPIRIT CRUISES LLC, NEW YORK, NY. More information available from US FCC via Universal Licensing System and Coast Guard Vessel Documentation Center.

Last reported at 2014-Dec-21 02:33 UTC. Time now 2014-Dec-21 02:39 UTC.
Position N 40°43' W 074°01'.

Length 62 m.

Type: Passenger vessel. MMSI: 338897000.

Date/timePositionNaut miles runAvg speedWind from/ knotsBaromVisibWave heightAir tempDewpointWater temp
2014-Dec-21 02:33N 40°43' W 074°01'3 2.7
2014-Dec-21 01:33N 40°46' W 074°01'1 0.0
2014-Dec-20 03:25N 40°45' W 074°01'1 1.0
2014-Dec-20 02:33N 40°44' W 074°01'2 2.2
2014-Dec-20 01:33N 40°42' W 074°00'3 3.4
2014-Dec-20 00:33N 40°45' W 074°01'1 0.5
2014-Dec-19 23:33N 40°45' W 074°01'0 0.0
2014-Dec-19 03:10N 40°45' W 074°01'1 1.3
2014-Dec-19 02:33N 40°44' W 074°01'2 2.2
2014-Dec-19 01:33N 40°42' W 074°01'0 0.4
2014-Dec-19 00:33N 40°42' W 074°01'3 3.0
2014-Dec-18 23:33N 40°45' W 074°01'0 0.0
2014-Dec-18 22:33N 40°45' W 074°01'0 0.0
2014-Dec-18 21:33N 40°45' W 074°01'0 0.0
2014-Dec-18 20:33N 40°45' W 074°01'0 0.0
2014-Dec-18 19:33N 40°45' W 074°01'1 1.1
2014-Dec-18 18:33N 40°44' W 074°01'2 2.1
2014-Dec-18 17:33N 40°42' W 074°01'3 3.2
2014-Dec-18 16:33N 40°45' W 074°01'0 0.0
2014-Dec-18 03:14N 40°45' W 074°01'1 1.4
2014-Dec-18 02:34N 40°44' W 074°01'2 2.2
2014-Dec-18 01:34N 40°42' W 074°01'4 3.6
2014-Dec-18 00:34N 40°45' W 074°01'1 0.6
2014-Dec-17 23:34N 40°45' W 074°01'  
2014-Dec-15 02:34N 40°44' W 074°01'3 2.7
2014-Dec-15 01:34N 40°42' W 074°02'3 3.5
2014-Dec-15 00:33N 40°45' W 074°01'0 0.3
2014-Dec-14 23:33N 40°45' W 074°01'0 0.0
2014-Dec-14 22:33N 40°45' W 074°01'0 0.0
2014-Dec-14 21:33N 40°45' W 074°01'0 0.0
2014-Dec-14 20:33N 40°45' W 074°01'0 0.0
2014-Dec-14 19:33N 40°45' W 074°01'1 1.1
2014-Dec-14 18:32N 40°44' W 074°01'1 0.7
2014-Dec-14 17:34N 40°43' W 074°01'1 0.0
2014-Dec-14 02:33N 40°44' W 074°01'2 2.0
2014-Dec-14 01:33N 40°42' W 074°01'4 3.8
2014-Dec-14 00:33N 40°46' W 074°00'1 0.8
2014-Dec-13 23:33N 40°45' W 074°01'0 0.0
2014-Dec-13 22:33N 40°45' W 074°01'0 0.0
2014-Dec-13 21:34N 40°45' W 074°01'0 0.0
2014-Dec-13 20:33N 40°45' W 074°01'0 0.0
2014-Dec-13 19:33N 40°45' W 074°01'1 0.7
2014-Dec-13 18:33N 40°44' W 074°01'2 2.0
2014-Dec-13 17:34N 40°42' W 074°02'3 2.7
2014-Dec-13 16:33N 40°45' W 074°01'0 0.0
2014-Dec-13 15:33N 40°45' W 074°01'0 0.0
2014-Dec-13 03:34N 40°45' W 074°01'3 3.0
2014-Dec-13 02:33N 40°42' W 074°02'1 0.5
2014-Dec-13 01:34N 40°42' W 074°01'3 3.1
2014-Dec-13 00:34N 40°45' W 074°01'0 0.0
2014-Dec-12 23:34N 40°45' W 074°01'0 0.0
2014-Dec-12 22:34N 40°45' W 074°01'0 0.5
2014-Dec-12 21:34N 40°44' W 074°01'2 2.5
2014-Dec-12 20:34N 40°42' W 074°02'3 0.2
2014-Dec-12 03:33N 40°45' W 074°01'1 0.8
2014-Dec-12 02:34N 40°44' W 074°01'3 2.5
2014-Dec-12 01:34N 40°42' W 074°01'4 4.2
2014-Dec-12 00:33N 40°46' W 074°01'1 0.0
2014-Dec-11 03:33N 40°45' W 074°01'1 0.9
2014-Dec-11 02:34N 40°44' W 074°01'  

Dump ship's entire track history